Time;durP1;ratioP1;P1;durP2;ratioP2;P2;SDS_P1;SDS_P2;PMS_P1;PMS_P2;Temp;Humidity;BMP_temperature;BMP_pressure;BME280_temperature;BME280_humidity;BME280_pressure;Samples;Min_cycle;Max_cycle;Signal;HPM_P1;HPM_P2
2022/08/04 00:01:44;;;;;;;9.65;3.72;;;21.00;99.90;;;;;;5013387;28;20171;-65
2022/08/04 00:04:17;;;;;;;6.57;3.33;;;21.00;99.90;;;;;;5013562;28;20213;-65
2022/08/04 00:07:02;;;;;;;5.75;3.50;;;21.00;99.90;;;;;;5013428;28;20188;-65
2022/08/04 00:09:49;;;;;;;8.13;3.65;;;21.00;99.90;;;;;;5013774;28;20199;-65
2022/08/04 00:12:16;;;;;;;5.38;3.47;;;21.00;99.90;;;;;;5013452;28;20168;-65
2022/08/04 00:14:51;;;;;;;5.72;3.60;;;20.90;99.90;;;;;;4995688;28;20188;-66
2022/08/04 00:17:20;;;;;;;6.38;3.50;;;20.80;99.90;;;;;;5013507;28;20246;-65
2022/08/04 00:19:54;;;;;;;12.52;3.90;;;20.70;99.90;;;;;;5013590;28;20168;-65
2022/08/04 00:22:25;;;;;;;8.60;3.63;;;20.70;99.90;;;;;;4995835;28;20175;-65
2022/08/04 00:24:52;;;;;;;8.63;3.70;;;20.60;99.90;;;;;;4995672;28;20199;-65
2022/08/04 00:27:18;;;;;;;6.88;3.58;;;20.60;99.90;;;;;;5013475;28;20187;-65
2022/08/04 00:29:45;;;;;;;5.53;3.28;;;20.60;99.90;;;;;;4996003;28;20714;-65
2022/08/04 00:32:12;;;;;;;6.15;3.53;;;20.60;99.90;;;;;;5013653;28;20180;-65
2022/08/04 00:34:38;;;;;;;11.20;4.18;;;20.50;99.90;;;;;;4995993;28;20208;-65
2022/08/04 00:37:05;;;;;;;9.43;3.85;;;20.50;99.90;;;;;;5013400;28;20195;-65
2022/08/04 00:39:32;;;;;;;10.13;4.22;;;20.40;99.90;;;;;;5013521;28;20254;-65
2022/08/04 00:42:30;;;;;;;10.43;4.63;;;20.40;99.90;;;;;;5013288;28;20619;-65
2022/08/04 00:45:26;;;;;;;7.03;3.75;;;20.30;99.90;;;;;;5015472;28;20223;-65
2022/08/04 00:48:10;;;;;;;9.10;3.60;;;20.30;99.90;;;;;;5017331;28;20620;-65
2022/08/04 00:50:59;;;;;;;8.88;3.70;;;20.30;99.90;;;;;;5016791;28;20626;-65
2022/08/04 00:53:48;;;;;;;6.95;3.53;;;20.30;99.90;;;;;;5032037;28;20178;-65
2022/08/04 00:56:40;;;;;;;8.10;3.75;;;20.30;99.90;;;;;;5031713;28;20259;-65
2022/08/04 00:59:49;;;;;;;8.00;3.50;;;20.20;99.90;;;;;;5016513;28;20168;-65
2022/08/04 01:02:37;;;;;;;10.20;3.75;;;20.20;99.90;;;;;;5016788;28;20217;-65
2022/08/04 01:05:08;;;;;;;9.50;4.30;;;20.10;99.90;;;;;;5016717;28;20290;-65
2022/08/04 01:07:39;;;;;;;10.73;4.03;;;20.10;99.90;;;;;;5016706;28;20171;-66
2022/08/04 01:10:26;;;;;;;7.03;3.90;;;20.10;99.90;;;;;;5016446;28;20180;-65
2022/08/04 01:13:30;;;;;;;7.85;3.88;;;20.00;99.90;;;;;;5016720;28;20183;-65
2022/08/04 01:16:12;;;;;;;7.20;3.83;;;20.00;99.90;;;;;;4939522;29;20204;-65
2022/08/04 01:18:59;;;;;;;6.78;4.38;;;19.90;99.90;;;;;;4956153;29;20206;-65
2022/08/04 01:21:46;;;;;;;9.88;4.40;;;20.00;99.90;;;;;;4999001;28;20274;-65
2022/08/04 01:24:28;;;;;;;5.93;3.58;;;20.00;99.90;;;;;;5016685;28;20561;-66
2022/08/04 01:27:14;;;;;;;10.23;4.22;;;20.10;99.90;;;;;;5016114;28;20198;-65
2022/08/04 01:29:48;;;;;;;7.00;4.00;;;20.00;99.90;;;;;;5016580;28;20164;-65
2022/08/04 01:32:30;;;;;;;10.20;4.03;;;20.00;99.90;;;;;;5015952;28;20152;-64
2022/08/04 01:35:39;;;;;;;8.85;3.75;;;20.00;99.90;;;;;;5016220;28;20719;-65
2022/08/04 01:38:29;;;;;;;10.18;4.18;;;20.00;99.90;;;;;;5005174;28;20195;-65
2022/08/04 01:41:06;;;;;;;7.30;3.92;;;20.00;99.90;;;;;;4998216;28;20218;-65
2022/08/04 01:43:34;;;;;;;8.75;4.55;;;20.10;99.90;;;;;;5016241;28;20210;-65
2022/08/04 01:46:04;;;;;;;8.13;4.07;;;20.00;99.90;;;;;;5015585;28;20196;-65
2022/08/04 01:48:30;;;;;;;12.68;4.63;;;20.00;99.90;;;;;;5015943;28;20218;-65
2022/08/04 01:51:02;;;;;;;8.77;3.88;;;19.90;99.90;;;;;;5016204;28;20164;-65
2022/08/04 01:53:34;;;;;;;7.88;4.43;;;19.90;99.90;;;;;;5030759;28;20205;-65
2022/08/04 01:56:05;;;;;;;8.98;4.03;;;19.80;99.90;;;;;;5015093;28;20219;-65
2022/08/04 01:58:32;;;;;;;8.43;4.05;;;19.80;99.90;;;;;;5015721;28;20266;-65
2022/08/04 02:01:03;;;;;;;9.98;4.50;;;19.80;99.90;;;;;;5015530;28;20211;-65
2022/08/04 02:03:31;;;;;;;10.60;4.07;;;19.80;99.90;;;;;;4997855;28;20204;-65
2022/08/04 02:06:24;;;;;;;9.25;4.43;;;19.80;99.90;;;;;;5015191;28;20722;-65
2022/08/04 02:09:23;;;;;;;6.68;4.03;;;19.80;99.90;;;;;;4997809;28;20283;-65
2022/08/04 02:12:01;;;;;;;8.63;4.10;;;19.80;99.90;;;;;;5015658;28;20156;-65
2022/08/04 02:14:44;;;;;;;8.65;3.70;;;19.70;99.90;;;;;;4997703;28;20179;-65
2022/08/04 02:17:39;;;;;;;10.00;4.13;;;19.70;99.90;;;;;;4997283;28;20200;-65
2022/08/04 02:20:06;;;;;;;10.98;4.05;;;19.70;99.90;;;;;;5015437;28;20171;-65
2022/08/04 02:23:06;;;;;;;9.43;4.45;;;19.60;99.90;;;;;;5015742;28;20180;-65
2022/08/04 02:25:39;;;;;;;7.55;3.75;;;19.60;99.90;;;;;;4994456;28;20215;-65
2022/08/04 02:28:12;;;;;;;8.63;4.40;;;19.50;99.90;;;;;;4997362;28;20175;-65
2022/08/04 02:31:02;;;;;;;7.38;3.67;;;19.50;99.90;;;;;;5015060;28;20179;-65
2022/08/04 02:34:09;;;;;;;9.27;4.25;;;19.50;99.90;;;;;;5014987;28;20206;-65
2022/08/04 02:36:40;;;;;;;7.57;3.97;;;19.40;99.90;;;;;;5014865;28;20197;-65
2022/08/04 02:39:08;;;;;;;8.20;3.78;;;19.50;99.90;;;;;;5014952;28;20225;-65
2022/08/04 02:41:35;;;;;;;8.40;4.00;;;19.50;99.90;;;;;;4997297;28;20176;-65
2022/08/04 02:44:06;;;;;;;5.35;3.80;;;19.50;99.90;;;;;;5014852;28;20191;-65
2022/08/04 02:46:33;;;;;;;6.55;3.72;;;19.40;99.90;;;;;;4997031;28;20655;-65
2022/08/04 02:49:02;;;;;;;8.20;3.75;;;19.40;99.90;;;;;;4997403;28;20171;-65
2022/08/04 02:51:34;;;;;;;9.43;4.03;;;19.30;99.90;;;;;;5015055;28;20218;-65
2022/08/04 02:54:04;;;;;;;7.78;4.50;;;19.30;99.90;;;;;;5014805;28;20168;-65
2022/08/04 02:56:32;;;;;;;6.90;3.72;;;19.20;99.90;;;;;;5014563;28;20222;-63
2022/08/04 02:59:04;;;;;;;8.55;4.15;;;19.20;99.90;;;;;;5029537;28;20186;-63
2022/08/04 03:01:31;;;;;;;7.53;3.80;;;19.20;99.90;;;;;;5014350;28;20233;-63
2022/08/04 03:04:25;;;;;;;10.25;4.03;;;19.10;99.90;;;;;;5014074;28;20226;-64
2022/08/04 03:07:16;;;;;;;6.28;4.07;;;19.00;99.90;;;;;;5013768;28;20192;-63
2022/08/04 03:10:05;;;;;;;6.97;3.85;;;18.90;99.90;;;;;;4996567;28;20168;-63
2022/08/04 03:13:04;;;;;;;7.22;4.05;;;18.80;99.90;;;;;;5014375;28;20218;-63
2022/08/04 03:16:08;;;;;;;6.07;3.65;;;18.70;99.90;;;;;;5013727;28;20195;-63
2022/08/04 03:19:07;;;;;;;7.57;3.95;;;18.70;99.90;;;;;;5014341;28;20167;-63
2022/08/04 03:21:39;;;;;;;7.95;4.35;;;18.70;99.90;;;;;;5014809;28;20156;-63
2022/08/04 03:24:32;;;;;;;7.65;4.32;;;18.70;99.90;;;;;;4996547;28;20206;-63
2022/08/04 03:27:17;;;;;;;6.28;4.10;;;18.70;99.90;;;;;;5014069;28;20213;-63
2022/08/04 03:29:55;;;;;;;7.15;3.83;;;18.60;99.90;;;;;;5013923;28;20195;-63
2022/08/04 03:32:35;;;;;;;5.43;3.60;;;18.70;99.90;;;;;;5013627;28;20163;-63
2022/08/04 03:35:07;;;;;;;11.02;4.55;;;18.70;99.90;;;;;;4996028;28;20644;-63
2022/08/04 03:37:32;;;;;;;6.32;4.38;;;18.70;99.90;;;;;;5013770;28;20691;-63
2022/08/04 03:40:19;;;;;;;9.38;4.45;;;18.70;99.90;;;;;;5014309;28;20184;-63
2022/08/04 03:42:56;;;;;;;8.13;4.25;;;18.70;99.90;;;;;;5013862;28;20196;-63
2022/08/04 03:45:37;;;;;;;7.40;4.40;;;18.70;99.90;;;;;;5013354;28;20249;-63
2022/08/04 03:48:08;;;;;;;7.65;4.35;;;18.70;99.90;;;;;;5013596;28;20690;-63
2022/08/04 03:54:04;;;;;;;9.15;4.03;;;18.80;99.90;;;;;;5013673;28;20202;-63
2022/08/04 03:57:07;;;;;;;10.30;4.47;;;18.80;99.90;;;;;;5013564;28;20211;-63
2022/08/04 03:59:51;;;;;;;7.43;5.15;;;18.70;99.90;;;;;;5013530;28;20184;-63
2022/08/04 04:02:19;;;;;;;7.88;4.00;;;18.70;99.90;;;;;;5013512;28;20160;-63
2022/08/04 04:05:20;;;;;;;8.35;4.72;;;18.60;99.90;;;;;;5013462;28;20234;-63
2022/08/04 04:08:06;;;;;;;6.75;4.30;;;18.60;99.90;;;;;;5013544;28;20696;-63
2022/08/04 04:10:57;;;;;;;6.95;4.68;;;18.50;99.90;;;;;;5013877;28;20510;-63
2022/08/04 04:13:47;;;;;;;7.22;4.35;;;18.60;99.90;;;;;;5013495;28;20633;-63
2022/08/04 04:16:28;;;;;;;7.88;4.00;;;18.60;99.90;;;;;;5013279;28;20211;-63
2022/08/04 04:19:21;;;;;;;8.15;4.32;;;18.60;99.90;;;;;;5014362;28;20187;-63
2022/08/04 04:21:56;;;;;;;7.45;4.20;;;18.50;99.90;;;;;;5032448;28;20267;-63
2022/08/04 04:24:34;;;;;;;7.43;4.18;;;18.50;99.90;;;;;;4999361;28;20261;-63
2022/08/04 04:27:17;;;;;;;6.35;3.70;;;18.40;99.90;;;;;;4999439;28;20204;-63
2022/08/04 04:29:51;;;;;;;8.63;4.35;;;18.40;99.90;;;;;;5017161;28;20179;-63
2022/08/04 04:32:30;;;;;;;6.43;4.22;;;18.50;99.90;;;;;;5016889;28;20566;-63
2022/08/04 04:35:24;;;;;;;9.20;4.50;;;18.50;99.90;;;;;;5017085;28;20657;-63
2022/08/04 04:38:05;;;;;;;8.88;4.78;;;18.50;99.90;;;;;;5016987;28;20207;-64
2022/08/04 04:41:15;;;;;;;7.75;4.18;;;18.60;99.90;;;;;;4999284;28;20180;-62
2022/08/04 04:43:47;;;;;;;6.47;4.28;;;18.60;99.90;;;;;;5001668;28;20715;-62
2022/08/04 04:46:46;;;;;;;6.30;4.10;;;18.60;99.90;;;;;;5016535;28;20196;-63
2022/08/04 04:49:30;;;;;;;5.15;4.22;;;18.70;99.90;;;;;;5005619;28;20191;-62
2022/08/04 04:52:04;;;;;;;6.35;3.97;;;18.70;99.90;;;;;;5016668;28;20229;-62
2022/08/04 04:54:42;;;;;;;9.63;4.63;;;18.70;99.90;;;;;;5017123;28;20164;-62
2022/08/04 04:57:18;;;;;;;9.23;4.40;;;18.80;99.90;;;;;;5016421;28;20215;-62
2022/08/04 04:59:57;;;;;;;5.93;4.55;;;18.80;99.90;;;;;;5016727;28;20166;-62
2022/08/04 05:02:35;;;;;;;7.05;4.07;;;18.90;99.90;;;;;;5016352;28;20167;-62
2022/08/04 05:05:35;;;;;;;5.18;4.00;;;18.90;99.90;;;;;;5016603;28;20265;-62
2022/08/04 05:08:39;;;;;;;6.00;4.07;;;18.90;99.90;;;;;;5016977;28;20165;-62
2022/08/04 05:11:27;;;;;;;8.98;4.50;;;18.90;99.90;;;;;;4955824;29;20197;-63
2022/08/04 05:13:58;;;;;;;6.75;4.30;;;19.00;99.90;;;;;;4956036;29;20246;-62
2022/08/04 05:16:29;;;;;;;9.20;4.07;;;19.00;99.90;;;;;;4995128;28;20257;-62
2022/08/04 05:19:37;;;;;;;6.60;4.35;;;19.00;99.90;;;;;;5016133;28;20640;-62
2022/08/04 05:22:08;;;;;;;10.52;4.60;;;19.10;99.90;;;;;;5016064;28;20251;-62
2022/08/04 05:24:39;;;;;;;10.48;4.05;;;19.20;99.90;;;;;;5016277;28;20206;-63
2022/08/04 05:27:14;;;;;;;9.38;4.90;;;19.20;99.90;;;;;;5016062;28;20253;-62
2022/08/04 05:29:53;;;;;;;7.07;4.45;;;19.30;99.90;;;;;;5031274;28;20176;-62
2022/08/04 05:32:27;;;;;;;6.70;4.50;;;19.30;99.90;;;;;;5015592;28;20239;-64
2022/08/04 05:35:05;;;;;;;5.78;3.90;;;19.40;99.90;;;;;;5016271;28;20542;-63
2022/08/04 05:37:33;;;;;;;8.32;5.00;;;19.50;99.90;;;;;;5015990;28;20617;-63
2022/08/04 05:40:03;;;;;;;6.68;4.25;;;19.50;99.90;;;;;;5016067;28;20203;-63
2022/08/04 05:42:33;;;;;;;9.73;4.38;;;19.60;99.90;;;;;;5015769;28;20187;-63
2022/08/04 05:44:59;;;;;;;10.85;4.95;;;19.70;99.90;;;;;;5014800;28;20574;-63
2022/08/04 05:47:26;;;;;;;8.20;4.80;;;19.70;99.90;;;;;;4997730;28;20262;-63
2022/08/04 05:49:54;;;;;;;8.45;4.97;;;19.80;99.90;;;;;;4997975;28;20271;-63
2022/08/04 05:52:21;;;;;;;6.50;4.43;;;19.90;99.90;;;;;;5016124;28;20156;-62
2022/08/04 05:54:49;;;;;;;8.60;4.72;;;19.90;99.90;;;;;;5015513;28;20198;-63
2022/08/04 05:57:16;;;;;;;7.90;4.57;;;20.10;99.90;;;;;;5015202;28;20207;-63
2022/08/04 05:59:45;;;;;;;8.50;4.45;;;20.20;99.90;;;;;;5015867;28;20227;-63
2022/08/04 06:02:15;;;;;;;6.47;4.20;;;20.30;99.90;;;;;;4997457;28;20179;-63
2022/08/04 06:04:44;;;;;;;10.02;5.28;;;20.40;99.90;;;;;;4997376;28;20212;-63
2022/08/04 06:07:10;;;;;;;7.38;4.00;;;20.60;99.90;;;;;;5014931;28;20608;-63
2022/08/04 06:09:36;;;;;;;7.35;4.45;;;20.60;99.90;;;;;;5015054;28;20176;-63
2022/08/04 06:12:06;;;;;;;10.18;4.03;;;20.80;99.90;;;;;;4997477;28;20251;-63
2022/08/04 06:14:38;;;;;;;7.00;4.05;;;20.90;99.90;;;;;;5030420;28;20187;-63
2022/08/04 06:17:06;;;;;;;7.50;4.32;;;21.00;99.90;;;;;;5014849;28;20195;-63
2022/08/04 06:19:35;;;;;;;6.63;4.25;;;21.10;99.90;;;;;;5014863;28;20672;-63
2022/08/04 06:22:04;;;;;;;7.53;3.47;;;21.20;99.90;;;;;;4997205;28;20180;-63
2022/08/04 06:24:31;;;;;;;7.50;3.60;;;21.30;99.90;;;;;;5015240;28;20343;-63
2022/08/04 06:26:59;;;;;;;6.05;3.53;;;21.40;99.90;;;;;;5014683;28;20192;-64
2022/08/04 06:29:34;;;;;;;5.50;3.58;;;21.50;99.90;;;;;;5014802;28;20226;-63
2022/08/04 06:32:12;;;;;;;5.60;3.20;;;21.70;99.90;;;;;;5014420;28;20526;-63
2022/08/04 06:34:40;;;;;;;6.30;3.30;;;21.80;99.90;;;;;;4997245;28;20191;-64
2022/08/04 06:37:07;;;;;;;4.95;3.50;;;21.90;99.90;;;;;;5014848;28;20192;-66
2022/08/04 06:39:34;;;;;;;5.50;3.40;;;22.10;99.90;;;;;;5015208;28;20160;-66
2022/08/04 06:42:01;;;;;;;5.78;3.47;;;22.20;99.90;;;;;;4997104;28;20744;-66
2022/08/04 06:44:28;;;;;;;5.25;3.35;;;22.30;99.90;;;;;;5014492;28;20207;-66
2022/08/04 06:46:55;;;;;;;7.57;4.15;;;22.40;99.90;;;;;;5014316;28;20198;-66
2022/08/04 06:49:22;;;;;;;5.35;3.35;;;22.50;99.90;;;;;;5029632;28;20175;-65
2022/08/04 06:51:49;;;;;;;7.90;3.55;;;22.60;99.90;;;;;;5014325;28;20168;-65
2022/08/04 06:54:15;;;;;;;6.47;3.42;;;22.80;99.90;;;;;;5014401;28;20176;-66
2022/08/04 06:56:44;;;;;;;5.97;3.05;;;22.90;99.90;;;;;;5014114;28;20215;-66
2022/08/04 06:59:11;;;;;;;7.63;3.53;;;23.00;99.90;;;;;;5014177;28;20653;-65
2022/08/04 07:01:37;;;;;;;6.80;3.20;;;23.10;99.90;;;;;;4996598;28;20194;-66
2022/08/04 07:04:04;;;;;;;4.63;3.28;;;23.20;99.90;;;;;;5013983;28;20204;-66
2022/08/04 07:06:31;;;;;;;5.35;3.25;;;23.30;99.90;;;;;;5014103;28;20187;-66
2022/08/04 07:08:58;;;;;;;5.63;3.75;;;23.40;99.90;;;;;;5014124;28;20541;-66
2022/08/04 07:11:24;;;;;;;4.45;3.47;;;23.50;99.90;;;;;;5014057;28;20248;-65
2022/08/04 07:13:51;;;;;;;5.53;3.40;;;23.70;99.90;;;;;;5014074;28;20509;-66
2022/08/04 07:16:19;;;;;;;7.38;3.55;;;23.80;99.90;;;;;;5028805;28;20584;-66
2022/08/04 07:18:45;;;;;;;5.47;3.70;;;24.00;99.90;;;;;;4996419;28;20180;-66
2022/08/04 07:21:22;;;;;;;5.25;3.15;;;24.10;99.90;;;;;;4996307;28;20190;-66
2022/08/04 07:23:48;;;;;;;6.10;3.05;;;24.30;99.90;;;;;;5014361;28;20645;-66
2022/08/04 07:26:16;;;;;;;7.45;3.28;;;24.40;99.90;;;;;;5013942;28;20199;-66
2022/08/04 07:28:42;;;;;;;5.32;3.30;;;24.50;99.90;;;;;;5014130;28;20159;-66
2022/08/04 07:31:14;;;;;;;5.22;3.63;;;24.70;99.90;;;;;;5013799;28;20175;-66
2022/08/04 07:33:41;;;;;;;7.63;3.33;;;24.90;99.90;;;;;;5013771;28;20166;-66
2022/08/04 07:36:07;;;;;;;5.47;3.10;;;25.00;99.90;;;;;;5013731;28;20214;-66
2022/08/04 07:38:33;;;;;;;3.88;3.00;;;25.20;99.90;;;;;;5013817;28;20664;-69
2022/08/04 07:41:02;;;;;;;5.25;3.47;;;25.30;99.90;;;;;;5013847;28;20242;-66
2022/08/04 07:43:29;;;;;;;5.53;3.38;;;25.50;99.90;;;;;;5028838;28;20179;-66
2022/08/04 07:45:55;;;;;;;5.90;3.40;;;25.60;99.90;;;;;;5013738;28;20760;-66
2022/08/04 07:48:23;;;;;;;5.13;3.08;;;25.70;99.90;;;;;;5013431;28;20198;-66
2022/08/04 07:50:50;;;;;;;5.32;3.03;;;25.80;99.90;;;;;;4996069;28;20267;-66
2022/08/04 07:53:17;;;;;;;6.22;3.30;;;26.00;99.90;;;;;;5013815;28;20263;-66
2022/08/04 07:55:45;;;;;;;6.28;3.20;;;26.10;99.90;;;;;;5017638;28;20216;-66
2022/08/04 07:58:11;;;;;;;3.72;3.08;;;26.40;99.90;;;;;;5018241;28;20254;-66
2022/08/04 08:00:37;;;;;;;3.80;3.15;;;26.50;99.90;;;;;;5017765;28;20207;-66
2022/08/04 08:03:04;;;;;;;5.43;3.13;;;26.70;99.90;;;;;;5017582;28;20211;-66
2022/08/04 08:05:31;;;;;;;3.92;2.70;;;27.00;99.90;;;;;;5018013;28;20205;-66
2022/08/04 08:07:58;;;;;;;7.30;3.38;;;27.10;99.90;;;;;;5017932;28;20175;-66
2022/08/04 08:10:24;;;;;;;6.13;3.50;;;27.30;99.90;;;;;;5032853;28;20187;-66
2022/08/04 08:12:51;;;;;;;6.75;3.40;;;27.50;99.90;;;;;;5017437;28;20636;-66
2022/08/04 08:15:18;;;;;;;4.07;2.70;;;27.70;99.90;;;;;;5017182;28;20180;-66
2022/08/04 08:17:44;;;;;;;8.15;3.20;;;27.80;99.90;;;;;;5017029;28;20176;-66
2022/08/04 08:20:10;;;;;;;2.35;2.15;;;27.90;99.90;;;;;;5017219;28;20182;-66
2022/08/04 08:22:37;;;;;;;6.05;2.85;;;28.10;99.90;;;;;;5017103;28;20251;-66
2022/08/04 08:25:05;;;;;;;3.33;2.58;;;28.20;99.90;;;;;;5016984;28;20203;-66
2022/08/04 08:27:31;;;;;;;3.95;2.35;;;28.40;99.90;;;;;;5016937;28;20188;-67
2022/08/04 08:29:57;;;;;;;4.50;2.60;;;28.50;99.90;;;;;;5017063;28;20279;-66
2022/08/04 08:32:23;;;;;;;4.00;2.63;;;28.50;99.90;;;;;;5016760;28;20180;-66
2022/08/04 08:34:49;;;;;;;3.80;2.83;;;28.60;99.90;;;;;;5017156;28;20573;-66
2022/08/04 08:37:33;;;;;;;2.67;2.47;;;28.70;99.90;;;;;;5016857;28;20196;-66
2022/08/04 08:40:32;;;;;;;4.22;2.72;;;28.90;99.90;;;;;;5017225;28;20239;-66
2022/08/04 08:43:35;;;;;;;4.60;2.88;;;29.00;99.90;;;;;;5016797;28;20626;-65
2022/08/04 08:46:23;;;;;;;4.05;2.80;;;29.20;99.90;;;;;;5016721;28;20203;-66
2022/08/04 08:49:00;;;;;;;3.47;2.60;;;29.20;99.90;;;;;;5016803;28;20250;-66
2022/08/04 08:51:54;;;;;;;3.10;2.35;;;29.30;99.90;;;;;;5016971;28;20167;-66
2022/08/04 08:54:50;;;;;;;4.57;2.50;;;29.50;99.90;;;;;;5016923;28;20536;-66
2022/08/04 08:57:28;;;;;;;3.78;2.22;;;29.70;99.90;;;;;;5016503;28;20606;-66
2022/08/04 09:00:15;;;;;;;4.47;2.90;;;29.90;99.90;;;;;;5031713;28;20203;-65
2022/08/04 09:03:04;;;;;;;3.55;2.28;;;30.10;99.90;;;;;;5016287;28;20183;-66
2022/08/04 09:05:56;;;;;;;3.72;2.42;;;30.20;99.90;;;;;;5014897;28;20204;-66
2022/08/04 09:08:28;;;;;;;4.53;2.50;;;30.40;99.90;;;;;;5016841;28;20255;-66
2022/08/04 09:11:05;;;;;;;2.40;2.15;;;30.50;99.90;;;;;;5016257;28;20641;-66
2022/08/04 09:13:42;;;;;;;3.28;2.30;;;30.70;99.90;;;;;;5016291;28;20243;-66
2022/08/04 09:16:19;;;;;;;2.95;2.58;;;30.90;99.90;;;;;;5016417;28;20192;-66
2022/08/04 09:19:13;;;;;;;3.30;2.22;;;31.00;99.90;;;;;;5016106;28;20191;-66
2022/08/04 09:21:48;;;;;;;4.57;2.38;;;31.10;99.90;;;;;;5016209;28;20164;-66
2022/08/04 09:24:52;;;;;;;4.35;2.10;;;31.10;99.90;;;;;;5015943;28;20202;-66
2022/08/04 09:27:23;;;;;;;5.07;2.17;;;31.10;99.90;;;;;;5016404;28;20197;-66
2022/08/04 09:29:52;;;;;;;3.25;2.25;;;31.20;99.90;;;;;;5016146;28;20179;-66
2022/08/04 09:32:23;;;;;;;5.97;2.10;;;31.40;99.90;;;;;;5015616;28;20195;-66
2022/08/04 09:35:14;;;;;;;4.45;2.05;;;31.50;99.90;;;;;;5015612;28;20180;-66
2022/08/04 09:37:58;;;;;;;6.30;2.30;;;31.70;99.90;;;;;;4998156;28;20310;-66
2022/08/04 09:40:43;;;;;;;5.20;2.38;;;31.90;99.90;;;;;;5015634;28;20164;-66
2022/08/04 09:43:46;;;;;;;3.88;2.30;;;32.00;99.90;;;;;;5030911;28;20203;-66
2022/08/04 09:46:31;;;;;;;3.33;2.10;;;32.20;99.90;;;;;;5015530;28;20203;-66
2022/08/04 09:49:37;;;;;;;4.10;1.90;;;32.20;99.90;;;;;;5015775;28;20250;-66
2022/08/04 09:52:22;;;;;;;4.45;1.90;;;32.30;99.90;;;;;;5014822;28;20202;-66
2022/08/04 09:55:04;;;;;;;4.03;2.08;;;32.30;99.90;;;;;;5015854;28;20164;-66
2022/08/04 09:57:30;;;;;;;2.90;2.00;;;32.40;99.90;;;;;;5015956;28;20192;-66
2022/08/04 10:00:02;;;;;;;4.30;2.17;;;32.50;99.90;;;;;;5015465;28;20156;-66
2022/08/04 10:02:33;;;;;;;4.13;2.05;;;32.50;99.90;;;;;;5015196;28;20168;-66
2022/08/04 10:05:02;;;;;;;3.67;1.90;;;32.50;99.90;;;;;;5015130;28;20212;-66
2022/08/04 10:07:37;;;;;;;3.55;2.00;;;32.50;99.90;;;;;;5015365;28;20266;-66
2022/08/04 10:10:32;;;;;;;4.68;1.80;;;32.60;99.90;;;;;;5015472;28;20164;-66
2022/08/04 10:13:16;;;;;;;3.80;1.90;;;32.60;99.90;;;;;;5030319;28;20171;-66
2022/08/04 10:15:44;;;;;;;3.58;1.70;;;32.80;99.90;;;;;;4997335;28;20210;-66
2022/08/04 10:18:22;;;;;;;5.18;1.60;;;32.90;99.90;;;;;;5014360;28;20180;-66
2022/08/04 10:21:07;;;;;;;5.70;1.45;;;32.90;99.90;;;;;;5015257;28;20250;-66
2022/08/04 10:23:57;;;;;;;5.05;1.98;;;33.00;99.90;;;;;;5030047;28;20214;-66
2022/08/04 10:26:45;;;;;;;4.63;1.83;;;33.10;99.90;;;;;;4985047;28;20208;-65
2022/08/04 10:29:25;;;;;;;6.13;1.80;;;32.90;99.90;;;;;;5015089;28;20157;-66
2022/08/04 10:32:09;;;;;;;4.53;1.80;;;32.80;99.90;;;;;;4996887;28;20309;-66
2022/08/04 10:34:47;;;;;;;2.20;2.00;;;32.70;99.90;;;;;;5014974;28;20226;-66
2022/08/04 10:37:45;;;;;;;2.22;1.83;;;32.70;99.90;;;;;;5014878;28;20195;-66
2022/08/04 10:40:39;;;;;;;2.67;1.75;;;32.70;99.90;;;;;;5014992;28;20156;-66
2022/08/04 10:43:05;;;;;;;2.03;1.75;;;32.50;99.90;;;;;;5014839;28;20184;-66
2022/08/04 10:45:48;;;;;;;1.52;1.40;;;32.20;99.90;;;;;;4996660;28;20691;-66
2022/08/04 10:48:37;;;;;;;2.72;1.60;;;32.10;99.90;;;;;;5014156;28;20226;-66
2022/08/04 10:51:20;;;;;;;6.55;1.90;;;32.20;99.90;;;;;;5014317;28;20602;-65
2022/08/04 10:53:54;;;;;;;3.67;1.70;;;32.50;99.90;;;;;;5014641;28;20175;-66
2022/08/04 10:56:40;;;;;;;1.95;1.52;;;32.80;99.90;;;;;;4996470;28;20218;-66
2022/08/04 10:59:19;;;;;;;2.53;1.60;;;33.10;99.90;;;;;;5014160;28;20176;-65
2022/08/04 11:01:47;;;;;;;2.50;1.40;;;33.30;99.90;;;;;;5014210;28;20160;-66
2022/08/04 11:04:46;;;;;;;2.88;1.55;;;33.20;99.90;;;;;;5014090;28;20211;-66
2022/08/04 11:07:14;;;;;;;2.58;1.63;;;33.10;99.90;;;;;;4996283;28;20226;-65
2022/08/04 11:09:42;;;;;;;2.30;1.80;;;32.90;99.90;;;;;;5029258;28;20314;-66
2022/08/04 11:12:28;;;;;;;1.70;1.60;;;32.80;99.90;;;;;;5013968;28;20661;-66
2022/08/04 11:15:20;;;;;;;1.77;1.38;;;32.70;99.90;;;;;;5013961;28;20621;-66
2022/08/04 11:17:54;;;;;;;2.70;1.80;;;32.80;99.90;;;;;;5013750;28;20286;-66
2022/08/04 11:20:29;;;;;;;1.88;1.60;;;32.90;99.90;;;;;;5029184;28;20556;-66
2022/08/04 11:23:10;;;;;;;1.33;1.23;;;32.90;99.90;;;;;;5014172;28;20556;-66
2022/08/04 11:26:03;;;;;;;3.05;1.75;;;32.90;99.90;;;;;;5013733;28;20238;-66
2022/08/04 11:28:50;;;;;;;4.68;2.33;;;32.70;99.90;;;;;;4995483;28;20274;-66
2022/08/04 11:31:24;;;;;;;3.03;1.70;;;32.50;99.90;;;;;;5028903;28;20655;-66
2022/08/04 11:34:20;;;;;;;2.65;1.73;;;32.50;99.90;;;;;;5013490;28;20621;-66
2022/08/04 11:37:05;;;;;;;4.50;1.80;;;32.60;99.90;;;;;;4994732;28;20588;-66
2022/08/04 11:39:49;;;;;;;5.68;2.13;;;32.70;99.90;;;;;;5013739;28;20660;-66
2022/08/04 11:42:19;;;;;;;2.28;1.45;;;32.60;99.90;;;;;;5013969;28;20164;-65
2022/08/04 11:44:53;;;;;;;2.53;1.52;;;32.50;99.90;;;;;;4995805;28;20668;-66
2022/08/04 11:48:08;;;;;;;4.28;1.88;;;32.50;99.90;;;;;;5013671;28;20545;-65
2022/08/04 11:50:42;;;;;;;6.00;2.45;;;32.80;99.90;;;;;;4937351;29;20184;-66
2022/08/04 11:53:15;;;;;;;4.00;2.08;;;33.20;99.90;;;;;;5010555;28;20267;-65
2022/08/04 11:55:44;;;;;;;3.47;2.63;;;33.40;99.90;;;;;;4995782;28;20222;-65
2022/08/04 11:58:10;;;;;;;4.63;2.05;;;33.50;99.90;;;;;;5014122;28;20187;-66
2022/08/04 12:00:41;;;;;;;3.97;2.00;;;33.90;99.90;;;;;;5014130;28;20176;-67
2022/08/04 12:03:38;;;;;;;5.60;2.05;;;33.80;99.90;;;;;;5014411;28;20195;-66
2022/08/04 12:06:27;;;;;;;3.33;1.80;;;34.20;99.90;;;;;;4996900;28;20214;-65
2022/08/04 12:09:00;;;;;;;7.80;2.28;;;34.00;99.90;;;;;;5014278;28;20246;-66
2022/08/04 12:11:47;;;;;;;7.82;2.60;;;33.90;99.90;;;;;;5015666;28;20156;-67
2022/08/04 12:14:35;;;;;;;3.83;2.13;;;33.70;99.90;;;;;;5014247;28;20172;-66
2022/08/04 12:17:03;;;;;;;5.65;2.30;;;33.70;99.90;;;;;;5013798;28;20234;-65
2022/08/04 12:19:58;;;;;;;5.50;2.38;;;34.00;99.90;;;;;;5014629;28;20251;-67
2022/08/04 12:22:26;;;;;;;5.93;3.05;;;33.80;99.90;;;;;;4993448;28;20281;-67
2022/08/04 12:24:58;;;;;;;4.85;2.33;;;33.60;99.90;;;;;;5014177;28;20223;-66
2022/08/04 12:27:30;;;;;;;5.63;2.60;;;33.40;99.90;;;;;;5015636;28;20194;-67
2022/08/04 12:29:57;;;;;;;8.30;2.60;;;33.50;99.90;;;;;;5014291;28;20167;-66
2022/08/04 12:32:54;;;;;;;6.70;2.60;;;33.70;99.90;;;;;;5013241;28;20512;-66
2022/08/04 12:35:22;;;;;;;7.35;2.42;;;33.70;99.90;;;;;;4980560;28;20200;-65
2022/08/04 12:37:58;;;;;;;4.07;2.40;;;33.80;99.90;;;;;;4993938;28;20268;-66
2022/08/04 12:40:49;;;;;;;4.28;2.15;;;33.90;99.90;;;;;;4977905;28;20196;-66
2022/08/04 12:43:37;;;;;;;5.55;2.65;;;33.70;99.90;;;;;;4997143;28;20311;-66
2022/08/04 12:46:12;;;;;;;7.55;2.67;;;33.50;99.90;;;;;;4997203;28;20659;-66
2022/08/04 12:48:38;;;;;;;8.23;2.40;;;33.30;99.90;;;;;;4997111;28;20160;-66
2022/08/04 12:51:09;;;;;;;5.00;2.53;;;33.20;99.90;;;;;;4996927;28;20177;-66
2022/08/04 12:53:39;;;;;;;4.32;2.17;;;32.90;99.90;;;;;;4997534;28;20157;-66
2022/08/04 12:56:08;;;;;;;5.03;2.58;;;32.70;99.90;;;;;;4996798;28;20208;-65
2022/08/04 12:58:40;;;;;;;5.38;2.58;;;32.50;99.90;;;;;;4997096;28;20636;-66
2022/08/04 13:01:09;;;;;;;6.88;2.88;;;32.30;99.90;;;;;;4996835;28;20173;-66
2022/08/04 13:03:45;;;;;;;7.72;2.78;;;32.10;99.90;;;;;;4996462;28;20565;-66
2022/08/04 13:06:14;;;;;;;8.57;2.42;;;32.10;99.90;;;;;;4997312;28;20195;-66
2022/08/04 13:08:44;;;;;;;6.20;2.47;;;32.00;99.90;;;;;;4996680;28;20153;-66
2022/08/04 13:11:10;;;;;;;10.18;3.35;;;32.00;99.90;;;;;;4996600;28;20179;-65
2022/08/04 13:13:38;;;;;;;5.13;2.35;;;32.00;99.90;;;;;;4996582;28;20220;-65
2022/08/04 13:16:07;;;;;;;5.72;2.95;;;32.10;99.90;;;;;;4996458;28;20192;-66
2022/08/04 13:18:38;;;;;;;6.85;2.65;;;32.10;99.90;;;;;;4996194;28;20201;-65
2022/08/04 13:21:13;;;;;;;6.50;2.75;;;32.00;99.90;;;;;;5011449;28;20191;-66
2022/08/04 13:23:41;;;;;;;4.28;2.22;;;32.00;99.90;;;;;;4996208;28;20172;-66
2022/08/04 13:26:08;;;;;;;7.30;2.80;;;31.80;99.90;;;;;;4996204;28;20684;-65
2022/08/04 13:28:39;;;;;;;8.27;3.13;;;31.60;99.90;;;;;;5011352;28;20230;-65
2022/08/04 13:31:08;;;;;;;8.25;2.83;;;31.50;99.90;;;;;;4996526;28;20165;-65
2022/08/04 13:33:37;;;;;;;5.38;2.47;;;31.40;99.90;;;;;;4996018;28;20630;-65
2022/08/04 13:36:05;;;;;;;3.10;2.28;;;31.30;99.90;;;;;;5030778;28;20234;-65
2022/08/04 13:38:32;;;;;;;4.63;2.50;;;31.30;99.90;;;;;;5015774;28;20168;-66
2022/08/04 13:41:04;;;;;;;5.45;2.30;;;31.20;99.90;;;;;;5016153;28;20171;-66